sensor_id;sensor_type;location;lat;lon;timestamp;pressure;altitude;pressure_sealevel;temperature
64904;BMP280;51401;48.882;12.598;2022-12-18T00:01:02;106849.19;;;-2.81
64904;BMP280;51401;48.882;12.598;2022-12-18T00:03:35;106896.44;;;-2.74
64904;BMP280;51401;48.882;12.598;2022-12-18T00:06:00;106889.59;;;-2.72
64904;BMP280;51401;48.882;12.598;2022-12-18T00:08:26;106876.88;;;-2.72
64904;BMP280;51401;48.882;12.598;2022-12-18T00:10:51;106844.66;;;-2.73
64904;BMP280;51401;48.882;12.598;2022-12-18T00:13:16;106796.56;;;-2.79
64904;BMP280;51401;48.882;12.598;2022-12-18T00:15:42;106765.34;;;-2.83
64904;BMP280;51401;48.882;12.598;2022-12-18T00:18:07;106792.09;;;-2.73
64904;BMP280;51401;48.882;12.598;2022-12-18T00:20:39;106697.44;;;-2.81
64904;BMP280;51401;48.882;12.598;2022-12-18T00:23:05;106696.34;;;-2.75
64904;BMP280;51401;48.882;12.598;2022-12-18T00:25:34;106609.31;;;-2.82
64904;BMP280;51401;48.882;12.598;2022-12-18T00:28:01;106621.47;;;-2.68
64904;BMP280;51401;48.882;12.598;2022-12-18T00:30:27;106548.53;;;-2.68
64904;BMP280;51401;48.882;12.598;2022-12-18T00:32:52;106509.25;;;-2.61
64904;BMP280;51401;48.882;12.598;2022-12-18T00:35:17;106419.50;;;-2.64
64904;BMP280;51401;48.882;12.598;2022-12-18T00:37:43;106284.47;;;-2.78
64904;BMP280;51401;48.882;12.598;2022-12-18T00:40:09;106235.53;;;-2.83
64904;BMP280;51401;48.882;12.598;2022-12-18T00:42:34;106188.22;;;-2.87
64904;BMP280;51401;48.882;12.598;2022-12-18T00:45:18;106097.97;;;-2.96
64904;BMP280;51401;48.882;12.598;2022-12-18T00:47:43;106094.44;;;-2.93
64904;BMP280;51401;48.882;12.598;2022-12-18T00:50:09;106038.91;;;-3.00
64904;BMP280;51401;48.882;12.598;2022-12-18T00:52:34;106033.59;;;-2.96
64904;BMP280;51401;48.882;12.598;2022-12-18T00:55:00;105967.09;;;-3.05
64904;BMP280;51401;48.882;12.598;2022-12-18T00:57:25;105950.13;;;-3.05
64904;BMP280;51401;48.882;12.598;2022-12-18T00:59:50;105934.00;;;-3.04
64904;BMP280;51401;48.882;12.598;2022-12-18T01:02:15;105903.56;;;-3.05
64904;BMP280;51401;48.882;12.598;2022-12-18T01:04:41;105943.63;;;-2.94
64904;BMP280;51401;48.882;12.598;2022-12-18T01:07:06;105873.88;;;-3.05
64904;BMP280;51401;48.882;12.598;2022-12-18T01:09:31;105845.13;;;-3.05
64904;BMP280;51401;48.882;12.598;2022-12-18T01:11:57;105845.03;;;-3.04
64904;BMP280;51401;48.882;12.598;2022-12-18T01:14:22;105839.22;;;-3.06
64904;BMP280;51401;48.882;12.598;2022-12-18T01:16:47;105854.16;;;-3.00
64904;BMP280;51401;48.882;12.598;2022-12-18T01:19:13;105824.72;;;-3.04
64904;BMP280;51401;48.882;12.598;2022-12-18T01:21:38;105790.94;;;-3.06
64904;BMP280;51401;48.882;12.598;2022-12-18T01:24:04;105806.75;;;-3.01
64904;BMP280;51401;48.882;12.598;2022-12-18T01:26:30;105764.59;;;-3.05
64904;BMP280;51401;48.882;12.598;2022-12-18T01:28:56;105772.97;;;-3.03
64904;BMP280;51401;48.882;12.598;2022-12-18T01:31:27;105717.38;;;-3.09
64904;BMP280;51401;48.882;12.598;2022-12-18T01:33:53;105707.13;;;-3.07
64904;BMP280;51401;48.882;12.598;2022-12-18T01:36:33;105679.44;;;-3.12
64904;BMP280;51401;48.882;12.598;2022-12-18T01:39:04;105659.03;;;-3.10
64904;BMP280;51401;48.882;12.598;2022-12-18T01:41:31;105641.53;;;-3.16
64904;BMP280;51401;48.882;12.598;2022-12-18T01:50:03;105658.69;;;-3.04
64904;BMP280;51401;48.882;12.598;2022-12-18T01:52:31;105610.09;;;-3.14
64904;BMP280;51401;48.882;12.598;2022-12-18T01:54:57;105557.91;;;-3.21
64904;BMP280;51401;48.882;12.598;2022-12-18T01:57:24;105641.41;;;-2.98
64904;BMP280;51401;48.882;12.598;2022-12-18T01:59:52;105548.03;;;-3.10
64904;BMP280;51401;48.882;12.598;2022-12-18T02:02:18;105580.22;;;-2.95
64904;BMP280;51401;48.882;12.598;2022-12-18T02:04:44;105527.91;;;-2.99
64904;BMP280;51401;48.882;12.598;2022-12-18T02:07:52;105421.44;;;-3.03
64904;BMP280;51401;48.882;12.598;2022-12-18T02:10:28;105373.44;;;-3.08
64904;BMP280;51401;48.882;12.598;2022-12-18T02:15:54;105316.88;;;-3.11
64904;BMP280;51401;48.882;12.598;2022-12-18T02:18:28;105303.38;;;-3.12
64904;BMP280;51401;48.882;12.598;2022-12-18T02:21:08;105263.94;;;-3.19
64904;BMP280;51401;48.882;12.598;2022-12-18T02:26:34;105187.38;;;-3.27
64904;BMP280;51401;48.882;12.598;2022-12-18T02:29:08;105225.66;;;-3.16
64904;BMP280;51401;48.882;12.598;2022-12-18T02:31:42;105170.53;;;-3.28
64904;BMP280;51401;48.882;12.598;2022-12-18T02:34:09;105202.16;;;-3.19
64904;BMP280;51401;48.882;12.598;2022-12-18T02:36:38;105140.94;;;-3.29
64904;BMP280;51401;48.882;12.598;2022-12-18T02:39:06;105118.44;;;-3.35
64904;BMP280;51401;48.882;12.598;2022-12-18T02:41:33;105122.44;;;-3.31
64904;BMP280;51401;48.882;12.598;2022-12-18T02:44:01;105104.22;;;-3.37
64904;BMP280;51401;48.882;12.598;2022-12-18T02:46:34;105094.88;;;-3.37
64904;BMP280;51401;48.882;12.598;2022-12-18T02:49:20;105106.31;;;-3.30
64904;BMP280;51401;48.882;12.598;2022-12-18T02:54:38;105045.97;;;-3.26
64904;BMP280;51401;48.882;12.598;2022-12-18T02:57:33;104987.66;;;-3.28
64904;BMP280;51401;48.882;12.598;2022-12-18T03:02:50;104942.72;;;-3.27
64904;BMP280;51401;48.882;12.598;2022-12-18T03:05:22;104920.81;;;-3.28
64904;BMP280;51401;48.882;12.598;2022-12-18T03:07:55;104858.00;;;-3.38
64904;BMP280;51401;48.882;12.598;2022-12-18T03:10:27;104890.59;;;-3.33
64904;BMP280;51401;48.882;12.598;2022-12-18T03:12:59;104867.97;;;-3.36
64904;BMP280;51401;48.882;12.598;2022-12-18T03:15:43;104821.81;;;-3.42
64904;BMP280;51401;48.882;12.598;2022-12-18T03:18:15;104810.81;;;-3.42
64904;BMP280;51401;48.882;12.598;2022-12-18T03:20:43;104797.63;;;-3.47
64904;BMP280;51401;48.882;12.598;2022-12-18T03:23:11;104826.06;;;-3.42
64904;BMP280;51401;48.882;12.598;2022-12-18T03:25:41;104809.13;;;-3.42
64904;BMP280;51401;48.882;12.598;2022-12-18T03:28:12;104748.69;;;-3.49
64904;BMP280;51401;48.882;12.598;2022-12-18T03:30:37;104700.34;;;-3.60
64904;BMP280;51401;48.882;12.598;2022-12-18T03:36:08;104696.50;;;-3.53
64904;BMP280;51401;48.882;12.598;2022-12-18T03:38:33;104657.38;;;-3.63
64904;BMP280;51401;48.882;12.598;2022-12-18T03:41:05;104612.00;;;-3.80
64904;BMP280;51401;48.882;12.598;2022-12-18T03:43:45;104700.34;;;-3.60
64904;BMP280;51401;48.882;12.598;2022-12-18T03:46:20;104641.84;;;-3.71
64904;BMP280;51401;48.882;12.598;2022-12-18T03:48:52;104677.88;;;-3.66
64904;BMP280;51401;48.882;12.598;2022-12-18T03:51:48;104666.44;;;-3.72
64904;BMP280;51401;48.882;12.598;2022-12-18T03:54:16;104667.63;;;-3.77
64904;BMP280;51401;48.882;12.598;2022-12-18T03:56:45;104634.81;;;-3.92
64904;BMP280;51401;48.882;12.598;2022-12-18T03:59:12;104682.81;;;-3.89
64904;BMP280;51401;48.882;12.598;2022-12-18T04:01:41;104770.97;;;-3.79
64904;BMP280;51401;48.882;12.598;2022-12-18T04:04:08;104794.69;;;-3.80
64904;BMP280;51401;48.882;12.598;2022-12-18T04:06:35;104841.81;;;-3.76
64904;BMP280;51401;48.882;12.598;2022-12-18T04:09:01;104874.72;;;-3.75
64904;BMP280;51401;48.882;12.598;2022-12-18T04:11:27;104903.34;;;-3.73
64904;BMP280;51401;48.882;12.598;2022-12-18T04:13:56;104910.25;;;-3.75
64904;BMP280;51401;48.882;12.598;2022-12-18T04:16:22;104882.06;;;-3.84
64904;BMP280;51401;48.882;12.598;2022-12-18T04:18:47;104936.00;;;-3.80
64904;BMP280;51401;48.882;12.598;2022-12-18T04:21:13;104954.66;;;-3.81
64904;BMP280;51401;48.882;12.598;2022-12-18T04:23:38;104999.25;;;-3.77
64904;BMP280;51401;48.882;12.598;2022-12-18T04:26:03;104991.19;;;-3.84
64904;BMP280;51401;48.882;12.598;2022-12-18T04:28:29;105004.69;;;-3.83
64904;BMP280;51401;48.882;12.598;2022-12-18T04:30:54;105019.81;;;-3.82
64904;BMP280;51401;48.882;12.598;2022-12-18T04:33:20;105056.78;;;-3.78
64904;BMP280;51401;48.882;12.598;2022-12-18T04:35:45;105088.88;;;-3.77
64904;BMP280;51401;48.882;12.598;2022-12-18T04:38:10;105046.25;;;-3.86
64904;BMP280;51401;48.882;12.598;2022-12-18T04:40:36;105037.28;;;-3.91
64904;BMP280;51401;48.882;12.598;2022-12-18T04:43:02;105081.69;;;-3.84
64904;BMP280;51401;48.882;12.598;2022-12-18T04:45:28;105114.63;;;-3.83
64904;BMP280;51401;48.882;12.598;2022-12-18T04:47:53;105082.88;;;-3.90
64904;BMP280;51401;48.882;12.598;2022-12-18T04:50:18;105096.28;;;-3.88
64904;BMP280;51401;48.882;12.598;2022-12-18T04:52:44;105071.47;;;-3.97
64904;BMP280;51401;48.882;12.598;2022-12-18T04:55:09;105104.97;;;-3.92
64904;BMP280;51401;48.882;12.598;2022-12-18T04:57:34;105133.34;;;-3.85
64904;BMP280;51401;48.882;12.598;2022-12-18T05:00:00;105137.69;;;-3.87
64904;BMP280;51401;48.882;12.598;2022-12-18T05:02:25;105133.88;;;-3.94
64904;BMP280;51401;48.882;12.598;2022-12-18T05:04:52;105110.59;;;-4.01
64904;BMP280;51401;48.882;12.598;2022-12-18T05:07:17;105130.78;;;-3.99
64904;BMP280;51401;48.882;12.598;2022-12-18T05:09:43;105154.47;;;-3.99
64904;BMP280;51401;48.882;12.598;2022-12-18T05:12:08;105157.16;;;-4.02
64904;BMP280;51401;48.882;12.598;2022-12-18T05:14:34;105132.38;;;-4.12
64904;BMP280;51401;48.882;12.598;2022-12-18T05:16:59;105201.94;;;-4.01
64904;BMP280;51401;48.882;12.598;2022-12-18T05:19:24;105228.75;;;-3.97
64904;BMP280;51401;48.882;12.598;2022-12-18T05:21:49;105232.19;;;-3.98
64904;BMP280;51401;48.882;12.598;2022-12-18T05:24:15;105244.13;;;-4.00
64904;BMP280;51401;48.882;12.598;2022-12-18T05:26:40;105321.06;;;-3.84
64904;BMP280;51401;48.882;12.598;2022-12-18T05:29:05;105282.78;;;-3.95
64904;BMP280;51401;48.882;12.598;2022-12-18T05:31:31;105286.94;;;-3.94
64904;BMP280;51401;48.882;12.598;2022-12-18T05:33:57;105281.13;;;-3.96
64904;BMP280;51401;48.882;12.598;2022-12-18T05:36:22;105302.88;;;-3.92
64904;BMP280;51401;48.882;12.598;2022-12-18T05:38:48;105351.44;;;-3.82
64904;BMP280;51401;48.882;12.598;2022-12-18T05:41:14;105345.56;;;-3.83
64904;BMP280;51401;48.882;12.598;2022-12-18T05:43:39;105353.72;;;-3.78
64904;BMP280;51401;48.882;12.598;2022-12-18T05:46:12;105338.50;;;-3.78
64904;BMP280;51401;48.882;12.598;2022-12-18T05:48:38;105281.69;;;-3.91
64904;BMP280;51401;48.882;12.598;2022-12-18T05:51:08;105285.78;;;-3.88
64904;BMP280;51401;48.882;12.598;2022-12-18T05:53:35;105281.50;;;-3.88
64904;BMP280;51401;48.882;12.598;2022-12-18T05:56:02;105267.03;;;-3.86
64904;BMP280;51401;48.882;12.598;2022-12-18T05:58:28;105251.78;;;-3.86
64904;BMP280;51401;48.882;12.598;2022-12-18T06:00:54;105219.22;;;-3.93
64904;BMP280;51401;48.882;12.598;2022-12-18T06:03:19;105215.97;;;-3.95
64904;BMP280;51401;48.882;12.598;2022-12-18T06:05:45;105245.84;;;-3.85
64904;BMP280;51401;48.882;12.598;2022-12-18T06:08:11;105246.63;;;-3.84
64904;BMP280;51401;48.882;12.598;2022-12-18T06:10:37;105235.59;;;-3.83
64904;BMP280;51401;48.882;12.598;2022-12-18T06:13:03;105251.31;;;-3.77
64904;BMP280;51401;48.882;12.598;2022-12-18T06:15:28;105263.09;;;-3.76
64904;BMP280;51401;48.882;12.598;2022-12-18T06:17:54;105270.63;;;-3.75
64904;BMP280;51401;48.882;12.598;2022-12-18T06:20:19;105235.53;;;-3.82
64904;BMP280;51401;48.882;12.598;2022-12-18T06:22:45;105230.44;;;-3.82
64904;BMP280;51401;48.882;12.598;2022-12-18T06:25:11;105280.44;;;-3.69
64904;BMP280;51401;48.882;12.598;2022-12-18T06:27:37;105223.41;;;-3.77
64904;BMP280;51401;48.882;12.598;2022-12-18T06:30:03;105174.13;;;-3.88
64904;BMP280;51401;48.882;12.598;2022-12-18T06:32:28;105211.59;;;-3.78
64904;BMP280;51401;48.882;12.598;2022-12-18T06:34:54;105151.09;;;-3.85
64904;BMP280;51401;48.882;12.598;2022-12-18T06:37:20;105149.56;;;-3.88
64904;BMP280;51401;48.882;12.598;2022-12-18T06:39:46;105145.41;;;-3.89
64904;BMP280;51401;48.882;12.598;2022-12-18T06:42:12;105138.69;;;-3.90
64904;BMP280;51401;48.882;12.598;2022-12-18T06:44:37;105157.09;;;-3.86
64904;BMP280;51401;48.882;12.598;2022-12-18T06:47:02;105118.03;;;-3.98
64904;BMP280;51401;48.882;12.598;2022-12-18T06:49:28;105134.88;;;-3.97
64904;BMP280;51401;48.882;12.598;2022-12-18T06:51:53;105121.81;;;-4.05
64904;BMP280;51401;48.882;12.598;2022-12-18T06:54:18;105103.47;;;-4.10
64904;BMP280;51401;48.882;12.598;2022-12-18T06:56:47;105115.44;;;-4.12
64904;BMP280;51401;48.882;12.598;2022-12-18T06:59:13;105143.91;;;-4.07
64904;BMP280;51401;48.882;12.598;2022-12-18T07:01:39;105178.19;;;-4.00
64904;BMP280;51401;48.882;12.598;2022-12-18T07:04:04;105141.72;;;-4.13
64904;BMP280;51401;48.882;12.598;2022-12-18T07:06:30;105159.00;;;-4.05
64904;BMP280;51401;48.882;12.598;2022-12-18T07:08:55;105175.06;;;-4.05
64904;BMP280;51401;48.882;12.598;2022-12-18T07:11:21;105167.63;;;-4.08
64904;BMP280;51401;48.882;12.598;2022-12-18T07:13:46;105160.75;;;-4.06
64904;BMP280;51401;48.882;12.598;2022-12-18T07:16:15;105190.88;;;-4.00
64904;BMP280;51401;48.882;12.598;2022-12-18T07:18:40;105220.97;;;-3.94
64904;BMP280;51401;48.882;12.598;2022-12-18T07:21:08;105165.56;;;-4.01
64904;BMP280;51401;48.882;12.598;2022-12-18T07:23:34;105207.19;;;-3.90
64904;BMP280;51401;48.882;12.598;2022-12-18T07:26:08;105137.03;;;-4.05
64904;BMP280;51401;48.882;12.598;2022-12-18T07:28:34;105181.38;;;-3.96
64904;BMP280;51401;48.882;12.598;2022-12-18T07:31:08;105152.81;;;-4.00
64904;BMP280;51401;48.882;12.598;2022-12-18T07:33:34;105174.56;;;-3.96
64904;BMP280;51401;48.882;12.598;2022-12-18T07:36:03;105171.13;;;-3.95
64904;BMP280;51401;48.882;12.598;2022-12-18T07:38:29;105146.28;;;-4.04
64904;BMP280;51401;48.882;12.598;2022-12-18T07:41:00;105171.13;;;-3.95
64904;BMP280;51401;48.882;12.598;2022-12-18T07:43:26;105161.16;;;-3.98
64904;BMP280;51401;48.882;12.598;2022-12-18T07:45:51;105140.41;;;-4.04
64904;BMP280;51401;48.882;12.598;2022-12-18T07:48:17;105192.06;;;-3.91
64904;BMP280;51401;48.882;12.598;2022-12-18T07:50:42;105159.34;;;-3.96
64904;BMP280;51401;48.882;12.598;2022-12-18T07:53:07;105047.50;;;-4.20
64904;BMP280;51401;48.882;12.598;2022-12-18T07:55:33;105066.59;;;-4.15
64904;BMP280;51401;48.882;12.598;2022-12-18T07:58:01;105013.09;;;-4.24
64904;BMP280;51401;48.882;12.598;2022-12-18T08:00:27;105054.19;;;-4.19
64904;BMP280;51401;48.882;12.598;2022-12-18T08:02:52;105042.59;;;-4.23
64904;BMP280;51401;48.882;12.598;2022-12-18T08:05:18;105091.59;;;-4.09
64904;BMP280;51401;48.882;12.598;2022-12-18T08:07:43;105139.25;;;-3.99
64904;BMP280;51401;48.882;12.598;2022-12-18T08:10:09;105163.25;;;-3.90
64904;BMP280;51401;48.882;12.598;2022-12-18T08:12:34;105125.47;;;-3.95
64904;BMP280;51401;48.882;12.598;2022-12-18T08:15:00;105099.97;;;-3.93
64904;BMP280;51401;48.882;12.598;2022-12-18T08:17:25;105078.25;;;-3.97
64904;BMP280;51401;48.882;12.598;2022-12-18T08:19:51;105054.97;;;-4.04
64904;BMP280;51401;48.882;12.598;2022-12-18T08:22:16;105091.75;;;-3.97
64904;BMP280;51401;48.882;12.598;2022-12-18T08:24:41;105019.78;;;-4.10
64904;BMP280;51401;48.882;12.598;2022-12-18T08:27:07;105042.31;;;-4.05
64904;BMP280;51401;48.882;12.598;2022-12-18T08:29:32;105021.44;;;-4.09
64904;BMP280;51401;48.882;12.598;2022-12-18T08:31:58;105122.28;;;-3.84
64904;BMP280;51401;48.882;12.598;2022-12-18T08:34:24;105071.81;;;-3.89
64904;BMP280;51401;48.882;12.598;2022-12-18T08:36:49;105127.50;;;-3.72
64904;BMP280;51401;48.882;12.598;2022-12-18T08:39:14;105040.03;;;-3.80
64904;BMP280;51401;48.882;12.598;2022-12-18T08:41:40;105044.66;;;-3.73
64904;BMP280;51401;48.882;12.598;2022-12-18T08:44:07;105040.47;;;-3.60
64904;BMP280;51401;48.882;12.598;2022-12-18T08:46:51;105023.78;;;-3.50
64904;BMP280;51401;48.882;12.598;2022-12-18T08:49:17;104973.63;;;-3.47
64904;BMP280;51401;48.882;12.598;2022-12-18T08:51:42;104853.25;;;-3.57
64904;BMP280;51401;48.882;12.598;2022-12-18T08:54:13;104755.56;;;-3.64
64904;BMP280;51401;48.882;12.598;2022-12-18T08:56:38;104711.19;;;-3.58
64904;BMP280;51401;48.882;12.598;2022-12-18T08:59:05;104603.56;;;-3.68
64904;BMP280;51401;48.882;12.598;2022-12-18T09:01:30;104543.38;;;-3.66
64904;BMP280;51401;48.882;12.598;2022-12-18T09:03:55;104544.09;;;-3.52
64904;BMP280;51401;48.882;12.598;2022-12-18T09:06:22;104502.09;;;-3.45
64904;BMP280;51401;48.882;12.598;2022-12-18T09:08:48;104457.50;;;-3.37
64904;BMP280;51401;48.882;12.598;2022-12-18T09:11:21;104298.78;;;-3.53
64904;BMP280;51401;48.882;12.598;2022-12-18T09:13:47;104256.81;;;-3.46
64904;BMP280;51401;48.882;12.598;2022-12-18T09:16:12;104178.56;;;-3.41
64904;BMP280;51401;48.882;12.598;2022-12-18T09:18:38;104052.78;;;-3.45
64904;BMP280;51401;48.882;12.598;2022-12-18T09:21:15;103892.16;;;-3.67
64904;BMP280;51401;48.882;12.598;2022-12-18T09:23:40;103878.31;;;-3.63
64904;BMP280;51401;48.882;12.598;2022-12-18T09:26:06;103799.50;;;-3.82
64904;BMP280;51401;48.882;12.598;2022-12-18T09:28:32;103854.75;;;-3.54
64904;BMP280;51401;48.882;12.598;2022-12-18T09:30:57;103701.03;;;-3.88
64904;BMP280;51401;48.882;12.598;2022-12-18T09:33:22;103771.97;;;-3.66
64904;BMP280;51401;48.882;12.598;2022-12-18T09:35:48;103727.47;;;-3.70
64904;BMP280;51401;48.882;12.598;2022-12-18T09:38:16;103701.59;;;-3.64
64904;BMP280;51401;48.882;12.598;2022-12-18T09:40:56;103603.84;;;-3.68
64904;BMP280;51401;48.882;12.598;2022-12-18T09:43:31;103528.13;;;-3.73
64904;BMP280;51401;48.882;12.598;2022-12-18T09:46:07;103464.69;;;-3.82
64904;BMP280;51401;48.882;12.598;2022-12-18T09:48:39;103536.75;;;-3.55
64904;BMP280;51401;48.882;12.598;2022-12-18T09:51:16;103426.44;;;-3.60
64904;BMP280;51401;48.882;12.598;2022-12-18T09:53:47;103348.03;;;-3.73
64904;BMP280;51401;48.882;12.598;2022-12-18T09:56:18;103259.66;;;-3.86
64904;BMP280;51401;48.882;12.598;2022-12-18T09:58:53;103304.91;;;-3.63
64904;BMP280;51401;48.882;12.598;2022-12-18T10:01:24;103245.78;;;-3.64
64904;BMP280;51401;48.882;12.598;2022-12-18T10:03:50;103176.09;;;-3.69
64904;BMP280;51401;48.882;12.598;2022-12-18T10:06:28;103165.38;;;-3.54
64904;BMP280;51401;48.882;12.598;2022-12-18T10:09:25;103064.47;;;-3.42
64904;BMP280;51401;48.882;12.598;2022-12-18T10:12:06;103006.53;;;-3.37
64904;BMP280;51401;48.882;12.598;2022-12-18T10:19:59;102790.50;;;-3.09
64904;BMP280;51401;48.882;12.598;2022-12-18T10:22:40;102674.38;;;-3.07
64904;BMP280;51401;48.882;12.598;2022-12-18T10:25:33;102596.31;;;-2.90
64904;BMP280;51401;48.882;12.598;2022-12-18T10:28:12;102414.47;;;-2.98
64904;BMP280;51401;48.882;12.598;2022-12-18T10:30:38;102298.81;;;-3.01
64904;BMP280;51401;48.882;12.598;2022-12-18T10:33:04;102251.16;;;-2.91
64904;BMP280;51401;48.882;12.598;2022-12-18T10:35:30;102160.59;;;-2.68
64904;BMP280;51401;48.882;12.598;2022-12-18T10:38:04;102056.38;;;-2.61
64904;BMP280;51401;48.882;12.598;2022-12-18T10:40:30;101935.31;;;-2.68
64904;BMP280;51401;48.882;12.598;2022-12-18T10:43:11;101797.69;;;-2.78
64904;BMP280;51401;48.882;12.598;2022-12-18T10:45:36;101719.78;;;-2.92
64904;BMP280;51401;48.882;12.598;2022-12-18T10:48:03;101649.72;;;-3.07
64904;BMP280;51401;48.882;12.598;2022-12-18T10:50:36;101687.56;;;-2.91
64904;BMP280;51401;48.882;12.598;2022-12-18T10:53:04;101608.25;;;-2.93
64904;BMP280;51401;48.882;12.598;2022-12-18T10:55:39;101597.28;;;-2.79
64904;BMP280;51401;48.882;12.598;2022-12-18T10:58:30;101568.00;;;-2.55
64904;BMP280;51401;48.882;12.598;2022-12-18T11:01:15;101470.13;;;-2.51
64904;BMP280;51401;48.882;12.598;2022-12-18T11:03:58;101327.78;;;-2.83
64904;BMP280;51401;48.882;12.598;2022-12-18T11:06:24;101293.44;;;-2.72
64904;BMP280;51401;48.882;12.598;2022-12-18T11:09:04;101252.88;;;-2.47
64904;BMP280;51401;48.882;12.598;2022-12-18T11:11:31;101220.66;;;-2.08
64904;BMP280;51401;48.882;12.598;2022-12-18T11:14:05;101088.34;;;-2.32
64904;BMP280;51401;48.882;12.598;2022-12-18T11:16:43;101010.56;;;-2.33
64904;BMP280;51401;48.882;12.598;2022-12-18T11:19:34;100946.09;;;-2.32
64904;BMP280;51401;48.882;12.598;2022-12-18T11:22:00;100921.50;;;-2.01
64904;BMP280;51401;48.882;12.598;2022-12-18T11:24:32;100871.97;;;-2.16
64904;BMP280;51401;48.882;12.598;2022-12-18T11:27:01;100842.69;;;-1.94
64904;BMP280;51401;48.882;12.598;2022-12-18T11:29:38;100745.56;;;-2.03
64904;BMP280;51401;48.882;12.598;2022-12-18T11:32:27;100678.16;;;-1.52
64904;BMP280;51401;48.882;12.598;2022-12-18T11:34:59;100578.22;;;-1.52
64904;BMP280;51401;48.882;12.598;2022-12-18T11:37:26;100496.53;;;-1.33
64904;BMP280;51401;48.882;12.598;2022-12-18T11:40:17;100412.34;;;-1.54
64904;BMP280;51401;48.882;12.598;2022-12-18T11:42:56;100363.09;;;-0.64
64904;BMP280;51401;48.882;12.598;2022-12-18T11:45:28;100268.38;;;-0.77
64904;BMP280;51401;48.882;12.598;2022-12-18T11:48:01;100217.78;;;-0.09
64904;BMP280;51401;48.882;12.598;2022-12-18T11:53:01;100056.81;;;-0.38
64904;BMP280;51401;48.882;12.598;2022-12-18T12:01:10;99934.22;;;-0.63
64904;BMP280;51401;48.882;12.598;2022-12-18T12:06:26;99871.28;;;-0.68
64904;BMP280;51401;48.882;12.598;2022-12-18T12:17:34;99809.13;;;-0.98
64904;BMP280;51401;48.882;12.598;2022-12-18T12:23:05;99775.88;;;-0.60
64904;BMP280;51401;48.882;12.598;2022-12-18T12:25:53;99743.84;;;-0.51
64904;BMP280;51401;48.882;12.598;2022-12-18T12:33:57;99662.47;;;-0.73
64904;BMP280;51401;48.882;12.598;2022-12-18T12:39:13;99624.03;;;-1.33
64904;BMP280;51401;48.882;12.598;2022-12-18T12:41:40;99595.63;;;-1.25
64904;BMP280;51401;48.882;12.598;2022-12-18T12:44:48;99574.19;;;-1.60
64904;BMP280;51401;48.882;12.598;2022-12-18T12:47:31;99571.03;;;-1.67
64904;BMP280;51401;48.882;12.598;2022-12-18T12:50:01;99558.47;;;-1.26
64904;BMP280;51401;48.882;12.598;2022-12-18T12:52:32;99532.66;;;-1.09
64904;BMP280;51401;48.882;12.598;2022-12-18T12:55:02;99507.06;;;-1.59
64904;BMP280;51401;48.882;12.598;2022-12-18T12:57:59;99479.81;;;-1.69
64904;BMP280;51401;48.882;12.598;2022-12-18T13:00:30;99484.44;;;-1.61
64904;BMP280;51401;48.882;12.598;2022-12-18T13:03:12;99470.63;;;-1.39
64904;BMP280;51401;48.882;12.598;2022-12-18T13:06:04;99466.56;;;-0.99
64904;BMP280;51401;48.882;12.598;2022-12-18T13:08:53;99449.66;;;-1.19
64904;BMP280;51401;48.882;12.598;2022-12-18T13:11:37;99432.22;;;-1.37
64904;BMP280;51401;48.882;12.598;2022-12-18T13:19:49;99401.38;;;-1.86
64904;BMP280;51401;48.882;12.598;2022-12-18T13:22:23;99390.47;;;-1.82
64904;BMP280;51401;48.882;12.598;2022-12-18T13:24:50;99377.56;;;-1.76
64904;BMP280;51401;48.882;12.598;2022-12-18T13:28:01;99368.66;;;-1.78
64904;BMP280;51401;48.882;12.598;2022-12-18T13:35:39;99345.78;;;-2.14
64904;BMP280;51401;48.882;12.598;2022-12-18T13:40:54;99321.16;;;-2.09
64904;BMP280;51401;48.882;12.598;2022-12-18T13:48:32;99302.50;;;-2.24
64904;BMP280;51401;48.882;12.598;2022-12-18T13:51:07;99301.69;;;-2.29
64904;BMP280;51401;48.882;12.598;2022-12-18T13:53:46;99301.97;;;-2.26
64904;BMP280;51401;48.882;12.598;2022-12-18T13:56:17;99294.47;;;-2.16
64904;BMP280;51401;48.882;12.598;2022-12-18T13:58:43;99283.25;;;-2.20
64904;BMP280;51401;48.882;12.598;2022-12-18T14:01:26;99274.22;;;-2.06
64904;BMP280;51401;48.882;12.598;2022-12-18T14:04:09;99273.69;;;-2.08
64904;BMP280;51401;48.882;12.598;2022-12-18T14:06:34;99267.31;;;-2.11
64904;BMP280;51401;48.882;12.598;2022-12-18T14:09:00;99273.13;;;-2.15
64904;BMP280;51401;48.882;12.598;2022-12-18T14:11:25;99269.25;;;-2.22
64904;BMP280;51401;48.882;12.598;2022-12-18T14:13:51;99255.56;;;-2.53
64904;BMP280;51401;48.882;12.598;2022-12-18T14:16:17;99262.69;;;-2.50
64904;BMP280;51401;48.882;12.598;2022-12-18T14:18:48;99263.97;;;-2.47
64904;BMP280;51401;48.882;12.598;2022-12-18T14:21:19;99250.41;;;-2.58
64904;BMP280;51401;48.882;12.598;2022-12-18T14:23:46;99246.78;;;-2.66
64904;BMP280;51401;48.882;12.598;2022-12-18T14:28:46;99236.06;;;-2.73
64904;BMP280;51401;48.882;12.598;2022-12-18T14:31:23;99234.56;;;-2.69
64904;BMP280;51401;48.882;12.598;2022-12-18T14:33:48;99228.44;;;-2.78
64904;BMP280;51401;48.882;12.598;2022-12-18T14:36:20;99233.38;;;-2.88
64904;BMP280;51401;48.882;12.598;2022-12-18T14:38:53;99239.72;;;-2.91
64904;BMP280;51401;48.882;12.598;2022-12-18T14:41:20;99251.94;;;-3.09
64904;BMP280;51401;48.882;12.598;2022-12-18T14:43:49;99251.81;;;-3.19
64904;BMP280;51401;48.882;12.598;2022-12-18T14:49:01;99265.59;;;-3.36
64904;BMP280;51401;48.882;12.598;2022-12-18T14:51:29;99281.41;;;-3.45
64904;BMP280;51401;48.882;12.598;2022-12-18T14:54:01;99294.94;;;-3.56
64904;BMP280;51401;48.882;12.598;2022-12-18T14:56:32;99328.91;;;-3.57
64904;BMP280;51401;48.882;12.598;2022-12-18T14:59:00;99345.09;;;-3.58
64904;BMP280;51401;48.882;12.598;2022-12-18T15:01:37;99355.59;;;-3.66
64904;BMP280;51401;48.882;12.598;2022-12-18T15:04:05;99374.66;;;-3.80
64904;BMP280;51401;48.882;12.598;2022-12-18T15:06:48;99385.44;;;-3.84
64904;BMP280;51401;48.882;12.598;2022-12-18T15:09:24;99398.13;;;-4.01
64904;BMP280;51401;48.882;12.598;2022-12-18T15:11:58;99428.13;;;-3.93
64904;BMP280;51401;48.882;12.598;2022-12-18T15:14:33;99439.72;;;-3.97
64904;BMP280;51401;48.882;12.598;2022-12-18T15:17:02;99458.22;;;-4.08
64904;BMP280;51401;48.882;12.598;2022-12-18T15:19:38;99475.09;;;-4.13
64904;BMP280;51401;48.882;12.598;2022-12-18T15:22:05;99509.31;;;-4.11